sensor_id;sensor_type;location;lat;lon;timestamp;pressure;altitude;pressure_sealevel;temperature;humidity
26443;BME280;5563;52.296;6.806;2023-04-15T00:01:27;100829.16;;;5.71;71.85
26443;BME280;5563;52.296;6.806;2023-04-15T00:03:54;100833.88;;;5.66;72.18
26443;BME280;5563;52.296;6.806;2023-04-15T00:06:28;100835.19;;;5.59;72.38
26443;BME280;5563;52.296;6.806;2023-04-15T00:08:55;100837.16;;;5.55;72.50
26443;BME280;5563;52.296;6.806;2023-04-15T00:11:29;100831.38;;;5.48;72.56
26443;BME280;5563;52.296;6.806;2023-04-15T00:13:56;100831.66;;;5.44;72.91
26443;BME280;5563;52.296;6.806;2023-04-15T00:16:30;100832.69;;;5.41;73.10
26443;BME280;5563;52.296;6.806;2023-04-15T00:18:56;100832.22;;;5.35;73.42
26443;BME280;5563;52.296;6.806;2023-04-15T00:21:24;100842.69;;;5.36;73.94
26443;BME280;5563;52.296;6.806;2023-04-15T00:23:57;100836.75;;;5.33;74.02
26443;BME280;5563;52.296;6.806;2023-04-15T00:26:30;100824.25;;;5.21;73.25
26443;BME280;5563;52.296;6.806;2023-04-15T00:28:56;100827.81;;;5.20;73.54
26443;BME280;5563;52.296;6.806;2023-04-15T00:31:30;100834.41;;;5.13;73.66
26443;BME280;5563;52.296;6.806;2023-04-15T00:33:57;100833.59;;;5.12;74.01
26443;BME280;5563;52.296;6.806;2023-04-15T00:36:25;100826.47;;;5.13;73.81
26443;BME280;5563;52.296;6.806;2023-04-15T00:38:58;100825.41;;;5.01;73.58
26443;BME280;5563;52.296;6.806;2023-04-15T00:41:25;100836.09;;;5.00;73.94
26443;BME280;5563;52.296;6.806;2023-04-15T00:44:00;100837.00;;;4.99;74.15
26443;BME280;5563;52.296;6.806;2023-04-15T00:46:37;100836.66;;;5.05;74.19
26443;BME280;5563;52.296;6.806;2023-04-15T00:49:11;100834.94;;;5.04;73.61
26443;BME280;5563;52.296;6.806;2023-04-15T00:51:38;100839.41;;;5.03;74.07
26443;BME280;5563;52.296;6.806;2023-04-15T00:54:12;100848.56;;;5.12;74.11
26443;BME280;5563;52.296;6.806;2023-04-15T00:56:39;100836.78;;;5.17;74.08
26443;BME280;5563;52.296;6.806;2023-04-15T00:59:13;100838.22;;;5.23;74.37
26443;BME280;5563;52.296;6.806;2023-04-15T01:01:40;100827.56;;;5.24;74.42
26443;BME280;5563;52.296;6.806;2023-04-15T01:04:20;100840.81;;;5.38;74.74
26443;BME280;5563;52.296;6.806;2023-04-15T01:06:47;100835.25;;;5.43;73.81
26443;BME280;5563;52.296;6.806;2023-04-15T01:09:21;100843.78;;;5.48;74.38
26443;BME280;5563;52.296;6.806;2023-04-15T01:11:48;100843.56;;;5.51;75.31
26443;BME280;5563;52.296;6.806;2023-04-15T01:14:14;100829.13;;;5.57;75.42
26443;BME280;5563;52.296;6.806;2023-04-15T01:16:48;100832.44;;;5.60;74.80
26443;BME280;5563;52.296;6.806;2023-04-15T01:19:15;100834.13;;;5.61;74.85
26443;BME280;5563;52.296;6.806;2023-04-15T01:21:50;100841.31;;;5.59;74.94
26443;BME280;5563;52.296;6.806;2023-04-15T01:24:18;100841.41;;;5.58;75.46
26443;BME280;5563;52.296;6.806;2023-04-15T01:26:51;100841.50;;;5.56;75.05
26443;BME280;5563;52.296;6.806;2023-04-15T01:29:18;100833.94;;;5.50;74.66
26443;BME280;5563;52.296;6.806;2023-04-15T01:31:54;100837.72;;;5.46;75.09
26443;BME280;5563;52.296;6.806;2023-04-15T01:34:22;100836.97;;;5.44;74.94
26443;BME280;5563;52.296;6.806;2023-04-15T01:36:55;100839.84;;;5.39;75.57
26443;BME280;5563;52.296;6.806;2023-04-15T01:39:22;100836.53;;;5.36;75.40
26443;BME280;5563;52.296;6.806;2023-04-15T01:41:48;100834.09;;;5.33;75.68
26443;BME280;5563;52.296;6.806;2023-04-15T01:44:22;100843.22;;;5.27;75.43
26443;BME280;5563;52.296;6.806;2023-04-15T01:46:55;100841.69;;;5.23;75.61
26443;BME280;5563;52.296;6.806;2023-04-15T01:49:28;100849.72;;;5.22;76.41
26443;BME280;5563;52.296;6.806;2023-04-15T01:51:55;100849.63;;;5.23;76.67
26443;BME280;5563;52.296;6.806;2023-04-15T01:54:28;100847.00;;;5.23;76.72
26443;BME280;5563;52.296;6.806;2023-04-15T01:56:55;100842.66;;;5.22;77.18
26443;BME280;5563;52.296;6.806;2023-04-15T01:59:29;100848.72;;;5.24;77.08
26443;BME280;5563;52.296;6.806;2023-04-15T02:01:56;100844.28;;;5.25;77.50
26443;BME280;5563;52.296;6.806;2023-04-15T02:04:30;100846.66;;;5.29;77.64
26443;BME280;5563;52.296;6.806;2023-04-15T02:07:03;100840.69;;;5.26;77.23
26443;BME280;5563;52.296;6.806;2023-04-15T02:09:30;100852.22;;;5.25;77.86
26443;BME280;5563;52.296;6.806;2023-04-15T02:12:04;100845.97;;;5.26;77.75
26443;BME280;5563;52.296;6.806;2023-04-15T02:14:31;100848.81;;;5.23;77.38
26443;BME280;5563;52.296;6.806;2023-04-15T02:17:04;100847.28;;;5.19;77.83
26443;BME280;5563;52.296;6.806;2023-04-15T02:19:34;100843.97;;;5.15;77.55
26443;BME280;5563;52.296;6.806;2023-04-15T02:22:08;100842.34;;;5.13;78.14
26443;BME280;5563;52.296;6.806;2023-04-15T02:24:37;100850.25;;;5.13;78.06
26443;BME280;5563;52.296;6.806;2023-04-15T02:27:16;100846.38;;;5.04;78.13
26443;BME280;5563;52.296;6.806;2023-04-15T02:29:44;100852.41;;;5.06;78.07
26443;BME280;5563;52.296;6.806;2023-04-15T02:32:18;100860.44;;;5.05;78.55
26443;BME280;5563;52.296;6.806;2023-04-15T02:34:45;100855.34;;;5.02;78.46
26443;BME280;5563;52.296;6.806;2023-04-15T02:37:19;100858.00;;;5.02;78.50
26443;BME280;5563;52.296;6.806;2023-04-15T02:39:46;100858.22;;;4.97;78.53
26443;BME280;5563;52.296;6.806;2023-04-15T02:42:13;100873.31;;;4.95;79.42
26443;BME280;5563;52.296;6.806;2023-04-15T02:44:46;100874.19;;;4.96;79.31
26443;BME280;5563;52.296;6.806;2023-04-15T02:47:13;100877.78;;;4.95;79.06
26443;BME280;5563;52.296;6.806;2023-04-15T02:49:47;100883.78;;;4.97;79.64
26443;BME280;5563;52.296;6.806;2023-04-15T02:52:14;100885.75;;;4.93;79.29
26443;BME280;5563;52.296;6.806;2023-04-15T02:54:47;100883.31;;;4.90;79.29
26443;BME280;5563;52.296;6.806;2023-04-15T02:57:14;100882.38;;;4.91;79.18
26443;BME280;5563;52.296;6.806;2023-04-15T02:59:47;100887.00;;;4.88;79.16
26443;BME280;5563;52.296;6.806;2023-04-15T03:02:14;100889.88;;;4.83;79.94
26443;BME280;5563;52.296;6.806;2023-04-15T03:04:47;100891.66;;;4.83;79.80
26443;BME280;5563;52.296;6.806;2023-04-15T03:07:21;100890.16;;;4.79;79.39
26443;BME280;5563;52.296;6.806;2023-04-15T03:09:54;100887.16;;;4.69;79.61
26443;BME280;5563;52.296;6.806;2023-04-15T03:12:21;100893.38;;;4.68;80.01
26443;BME280;5563;52.296;6.806;2023-04-15T03:14:54;100894.41;;;4.66;80.11
26443;BME280;5563;52.296;6.806;2023-04-15T03:17:27;100901.53;;;4.64;80.19
26443;BME280;5563;52.296;6.806;2023-04-15T03:19:54;100909.66;;;4.61;80.13
26443;BME280;5563;52.296;6.806;2023-04-15T03:22:27;100911.59;;;4.57;80.50
26443;BME280;5563;52.296;6.806;2023-04-15T03:24:53;100903.91;;;4.53;80.10
26443;BME280;5563;52.296;6.806;2023-04-15T03:27:27;100894.81;;;4.43;79.91
26443;BME280;5563;52.296;6.806;2023-04-15T03:29:54;100899.59;;;4.36;80.81
26443;BME280;5563;52.296;6.806;2023-04-15T03:32:28;100906.38;;;4.40;80.78
26443;BME280;5563;52.296;6.806;2023-04-15T03:34:55;100914.38;;;4.38;80.95
26443;BME280;5563;52.296;6.806;2023-04-15T03:37:21;100910.53;;;4.28;80.40
26443;BME280;5563;52.296;6.806;2023-04-15T03:39:55;100908.41;;;4.19;80.49
26443;BME280;5563;52.296;6.806;2023-04-15T03:42:22;100912.91;;;4.17;81.21
26443;BME280;5563;52.296;6.806;2023-04-15T03:45:02;100908.56;;;4.16;80.92
26443;BME280;5563;52.296;6.806;2023-04-15T03:47:29;100917.50;;;4.14;81.23
26443;BME280;5563;52.296;6.806;2023-04-15T03:50:03;100925.50;;;4.12;81.12
26443;BME280;5563;52.296;6.806;2023-04-15T03:52:30;100921.16;;;4.11;81.68
26443;BME280;5563;52.296;6.806;2023-04-15T03:55:03;100924.72;;;4.10;81.85
26443;BME280;5563;52.296;6.806;2023-04-15T03:57:30;100923.03;;;4.09;82.25
26443;BME280;5563;52.296;6.806;2023-04-15T04:00:05;100935.53;;;4.06;82.19
26443;BME280;5563;52.296;6.806;2023-04-15T04:02:32;100931.34;;;4.02;81.90
26443;BME280;5563;52.296;6.806;2023-04-15T04:05:05;100947.16;;;4.02;81.90
26443;BME280;5563;52.296;6.806;2023-04-15T04:07:32;100934.91;;;4.01;82.50
26443;BME280;5563;52.296;6.806;2023-04-15T04:10:05;100946.22;;;4.03;82.80
26443;BME280;5563;52.296;6.806;2023-04-15T04:12:32;100951.50;;;4.03;82.32
26443;BME280;5563;52.296;6.806;2023-04-15T04:14:59;100955.06;;;4.02;82.54
26443;BME280;5563;52.296;6.806;2023-04-15T04:17:32;100955.00;;;4.03;82.52
26443;BME280;5563;52.296;6.806;2023-04-15T04:20:06;100954.28;;;4.00;82.50
26443;BME280;5563;52.296;6.806;2023-04-15T04:22:39;100964.16;;;3.96;82.53
26443;BME280;5563;52.296;6.806;2023-04-15T04:25:07;100958.19;;;3.93;82.62
26443;BME280;5563;52.296;6.806;2023-04-15T04:27:42;100954.00;;;3.89;82.57
26443;BME280;5563;52.296;6.806;2023-04-15T04:30:09;100960.44;;;3.83;82.75
26443;BME280;5563;52.296;6.806;2023-04-15T04:32:42;100962.53;;;3.77;82.85
26443;BME280;5563;52.296;6.806;2023-04-15T04:35:09;100961.06;;;3.71;83.22
26443;BME280;5563;52.296;6.806;2023-04-15T04:37:43;100956.13;;;3.65;82.88
26443;BME280;5563;52.296;6.806;2023-04-15T04:40:19;100949.50;;;3.57;83.53
26443;BME280;5563;52.296;6.806;2023-04-15T04:43:06;100947.19;;;3.51;83.37
26443;BME280;5563;52.296;6.806;2023-04-15T04:45:40;100968.75;;;3.59;84.27
26443;BME280;5563;52.296;6.806;2023-04-15T04:48:13;100960.91;;;3.57;83.86
26443;BME280;5563;52.296;6.806;2023-04-15T04:50:46;100963.53;;;3.57;84.02
26443;BME280;5563;52.296;6.806;2023-04-15T04:53:19;100963.63;;;3.56;84.10
26443;BME280;5563;52.296;6.806;2023-04-15T04:55:46;100966.50;;;3.51;83.98
26443;BME280;5563;52.296;6.806;2023-04-15T04:58:19;100955.63;;;3.40;83.98
26443;BME280;5563;52.296;6.806;2023-04-15T05:00:46;100973.06;;;3.43;83.55
26443;BME280;5563;52.296;6.806;2023-04-15T05:03:19;100973.31;;;3.38;83.99
26443;BME280;5563;52.296;6.806;2023-04-15T05:05:52;100961.97;;;3.36;83.88
26443;BME280;5563;52.296;6.806;2023-04-15T05:08:26;100976.03;;;3.37;84.24
26443;BME280;5563;52.296;6.806;2023-04-15T05:10:59;100970.81;;;3.35;83.81
26443;BME280;5563;52.296;6.806;2023-04-15T05:13:26;100980.25;;;3.39;84.43
26443;BME280;5563;52.296;6.806;2023-04-15T05:15:59;100967.50;;;3.32;84.28
26443;BME280;5563;52.296;6.806;2023-04-15T05:18:32;100978.72;;;3.35;84.02
26443;BME280;5563;52.296;6.806;2023-04-15T05:21:06;100988.25;;;3.38;84.13
26443;BME280;5563;52.296;6.806;2023-04-15T05:23:33;100997.66;;;3.43;84.65
26443;BME280;5563;52.296;6.806;2023-04-15T05:26:00;100999.03;;;3.50;84.66
26443;BME280;5563;52.296;6.806;2023-04-15T05:28:33;101002.31;;;3.55;83.76
26443;BME280;5563;52.296;6.806;2023-04-15T05:31:06;100999.38;;;3.61;84.01
26443;BME280;5563;52.296;6.806;2023-04-15T05:33:40;101011.50;;;3.65;84.04
26443;BME280;5563;52.296;6.806;2023-04-15T05:36:07;101013.97;;;3.68;84.61
26443;BME280;5563;52.296;6.806;2023-04-15T05:38:40;101019.00;;;3.73;84.58
26443;BME280;5563;52.296;6.806;2023-04-15T05:41:07;101011.84;;;3.75;84.54
26443;BME280;5563;52.296;6.806;2023-04-15T05:43:50;101003.56;;;3.65;84.40
26443;BME280;5563;52.296;6.806;2023-04-15T05:46:17;101023.28;;;3.75;84.24
26443;BME280;5563;52.296;6.806;2023-04-15T05:48:51;101030.94;;;3.80;84.54
26443;BME280;5563;52.296;6.806;2023-04-15T05:51:20;101034.97;;;3.87;84.76
26443;BME280;5563;52.296;6.806;2023-04-15T05:53:53;101034.75;;;3.91;84.59
26443;BME280;5563;52.296;6.806;2023-04-15T05:56:20;101043.28;;;3.96;84.73
26443;BME280;5563;52.296;6.806;2023-04-15T05:58:53;101037.84;;;3.99;84.70
26443;BME280;5563;52.296;6.806;2023-04-15T06:01:20;101041.75;;;4.09;84.84
26443;BME280;5563;52.296;6.806;2023-04-15T06:03:54;101046.56;;;4.18;84.91
26443;BME280;5563;52.296;6.806;2023-04-15T06:06:21;101045.06;;;4.30;84.72
26443;BME280;5563;52.296;6.806;2023-04-15T06:08:55;101048.00;;;4.41;84.77
26443;BME280;5563;52.296;6.806;2023-04-15T06:11:23;101054.19;;;4.57;85.16
26443;BME280;5563;52.296;6.806;2023-04-15T06:13:56;101050.81;;;4.71;85.02
26443;BME280;5563;52.296;6.806;2023-04-15T06:16:23;101063.19;;;4.86;85.25
26443;BME280;5563;52.296;6.806;2023-04-15T06:18:56;101062.44;;;4.99;84.64
26443;BME280;5563;52.296;6.806;2023-04-15T06:21:29;101062.38;;;5.16;84.31
26443;BME280;5563;52.296;6.806;2023-04-15T06:23:58;101063.22;;;5.32;84.07
26443;BME280;5563;52.296;6.806;2023-04-15T06:26:32;101062.47;;;5.46;83.83
26443;BME280;5563;52.296;6.806;2023-04-15T06:28:59;101063.47;;;5.59;84.09
26443;BME280;5563;52.296;6.806;2023-04-15T06:31:32;101063.72;;;5.70;83.78
26443;BME280;5563;52.296;6.806;2023-04-15T06:33:59;101063.09;;;5.81;83.72
26443;BME280;5563;52.296;6.806;2023-04-15T06:36:32;101068.66;;;5.92;83.28
26443;BME280;5563;52.296;6.806;2023-04-15T06:38:59;101072.75;;;5.97;83.27
26443;BME280;5563;52.296;6.806;2023-04-15T06:41:33;101067.84;;;6.05;83.10
26443;BME280;5563;52.296;6.806;2023-04-15T06:44:07;101071.00;;;6.12;82.99
26443;BME280;5563;52.296;6.806;2023-04-15T06:46:47;101067.88;;;6.19;82.70
26443;BME280;5563;52.296;6.806;2023-04-15T06:49:14;101065.81;;;6.24;82.58
26443;BME280;5563;52.296;6.806;2023-04-15T06:51:47;101079.47;;;6.32;82.51
26443;BME280;5563;52.296;6.806;2023-04-15T06:54:20;101078.16;;;6.39;82.31
26443;BME280;5563;52.296;6.806;2023-04-15T06:56:47;101078.81;;;6.43;82.30
26443;BME280;5563;52.296;6.806;2023-04-15T06:59:20;101081.13;;;6.49;82.02
26443;BME280;5563;52.296;6.806;2023-04-15T07:01:47;101084.13;;;6.57;82.25
26443;BME280;5563;52.296;6.806;2023-04-15T07:04:20;101085.47;;;6.64;81.99
26443;BME280;5563;52.296;6.806;2023-04-15T07:06:47;101087.66;;;6.72;82.08
26443;BME280;5563;52.296;6.806;2023-04-15T07:09:21;101092.41;;;6.81;81.90
26443;BME280;5563;52.296;6.806;2023-04-15T07:11:48;101088.44;;;6.88;81.84
26443;BME280;5563;52.296;6.806;2023-04-15T07:14:21;101095.81;;;6.97;81.85
26443;BME280;5563;52.296;6.806;2023-04-15T07:16:48;101091.84;;;7.04;81.75
26443;BME280;5563;52.296;6.806;2023-04-15T07:19:21;101095.50;;;7.15;81.87
26443;BME280;5563;52.296;6.806;2023-04-15T07:21:55;101100.34;;;7.23;81.42
26443;BME280;5563;52.296;6.806;2023-04-15T07:24:28;101096.72;;;7.24;81.56
26443;BME280;5563;52.296;6.806;2023-04-15T07:27:02;101101.44;;;7.33;81.40
26443;BME280;5563;52.296;6.806;2023-04-15T07:29:29;101110.72;;;7.40;81.63
26443;BME280;5563;52.296;6.806;2023-04-15T07:32:03;101116.41;;;7.48;81.63
26443;BME280;5563;52.296;6.806;2023-04-15T07:34:30;101112.53;;;7.53;81.63
26443;BME280;5563;52.296;6.806;2023-04-15T07:37:03;101119.41;;;7.56;81.41
26443;BME280;5563;52.296;6.806;2023-04-15T07:39:30;101109.00;;;7.53;81.42
26443;BME280;5563;52.296;6.806;2023-04-15T07:42:03;101116.00;;;7.54;81.25
26443;BME280;5563;52.296;6.806;2023-04-15T07:44:43;101124.81;;;7.54;80.95
26443;BME280;5563;52.296;6.806;2023-04-15T07:47:16;101122.16;;;7.54;80.97
26443;BME280;5563;52.296;6.806;2023-04-15T07:49:43;101131.75;;;7.57;81.08
26443;BME280;5563;52.296;6.806;2023-04-15T07:52:16;101130.13;;;7.54;80.30
26443;BME280;5563;52.296;6.806;2023-04-15T07:54:49;101126.91;;;7.49;80.58
26443;BME280;5563;52.296;6.806;2023-04-15T07:57:16;101126.63;;;7.54;80.89
26443;BME280;5563;52.296;6.806;2023-04-15T07:59:49;101133.44;;;7.58;80.40
26443;BME280;5563;52.296;6.806;2023-04-15T08:02:16;101142.16;;;7.60;80.71
26443;BME280;5563;52.296;6.806;2023-04-15T08:04:49;101136.53;;;7.64;80.46
26443;BME280;5563;52.296;6.806;2023-04-15T08:07:16;101143.19;;;7.72;80.58
26443;BME280;5563;52.296;6.806;2023-04-15T08:09:50;101147.44;;;7.74;80.60
26443;BME280;5563;52.296;6.806;2023-04-15T08:12:17;101144.78;;;7.74;80.29
26443;BME280;5563;52.296;6.806;2023-04-15T08:14:50;101151.88;;;7.74;80.17
26443;BME280;5563;52.296;6.806;2023-04-15T08:17:17;101146.19;;;7.80;80.13
26443;BME280;5563;52.296;6.806;2023-04-15T08:19:44;101153.44;;;7.90;80.42
26443;BME280;5563;52.296;6.806;2023-04-15T08:22:17;101150.97;;;8.01;79.75
26443;BME280;5563;52.296;6.806;2023-04-15T08:24:46;101144.50;;;8.05;79.15
26443;BME280;5563;52.296;6.806;2023-04-15T08:27:19;101149.41;;;8.11;79.17
26443;BME280;5563;52.296;6.806;2023-04-15T08:29:46;101152.69;;;8.15;79.21
26443;BME280;5563;52.296;6.806;2023-04-15T08:32:19;101150.81;;;8.17;79.30
26443;BME280;5563;52.296;6.806;2023-04-15T08:34:47;101153.34;;;8.18;78.58
26443;BME280;5563;52.296;6.806;2023-04-15T08:37:20;101142.50;;;8.21;78.24
26443;BME280;5563;52.296;6.806;2023-04-15T08:39:48;101157.13;;;8.28;78.14
26443;BME280;5563;52.296;6.806;2023-04-15T08:42:27;101149.41;;;8.38;78.18
26443;BME280;5563;52.296;6.806;2023-04-15T08:45:03;101154.84;;;8.49;77.64
26443;BME280;5563;52.296;6.806;2023-04-15T08:47:37;101155.09;;;8.58;77.73
26443;BME280;5563;52.296;6.806;2023-04-15T08:50:13;101154.69;;;8.77;77.62
26443;BME280;5563;52.296;6.806;2023-04-15T08:52:48;101159.25;;;8.88;77.24
26443;BME280;5563;52.296;6.806;2023-04-15T08:55:21;101153.19;;;8.86;76.51
26443;BME280;5563;52.296;6.806;2023-04-15T08:57:55;101164.59;;;8.88;76.26
26443;BME280;5563;52.296;6.806;2023-04-15T09:00:22;101161.53;;;8.94;76.58
26443;BME280;5563;52.296;6.806;2023-04-15T09:02:57;101175.00;;;9.03;76.24
26443;BME280;5563;52.296;6.806;2023-04-15T09:05:32;101171.81;;;9.11;75.99
26443;BME280;5563;52.296;6.806;2023-04-15T09:08:00;101178.75;;;9.13;75.79
26443;BME280;5563;52.296;6.806;2023-04-15T09:10:35;101174.06;;;9.17;75.70
26443;BME280;5563;52.296;6.806;2023-04-15T09:13:02;101174.50;;;9.11;75.68
26443;BME280;5563;52.296;6.806;2023-04-15T09:15:39;101186.28;;;9.19;75.87
26443;BME280;5563;52.296;6.806;2023-04-15T09:18:05;101185.53;;;9.17;75.47
26443;BME280;5563;52.296;6.806;2023-04-15T09:20:40;101187.78;;;9.11;75.11
26443;BME280;5563;52.296;6.806;2023-04-15T09:23:12;101190.78;;;9.06;75.91
26443;BME280;5563;52.296;6.806;2023-04-15T09:25:47;101189.16;;;9.04;75.44
26443;BME280;5563;52.296;6.806;2023-04-15T09:28:22;101200.22;;;8.98;75.04
26443;BME280;5563;52.296;6.806;2023-04-15T09:31:00;101195.88;;;8.97;76.03
26443;BME280;5563;52.296;6.806;2023-04-15T09:33:33;101204.81;;;8.96;75.67
26443;BME280;5563;52.296;6.806;2023-04-15T09:36:06;101195.66;;;9.00;75.79
26443;BME280;5563;52.296;6.806;2023-04-15T09:38:33;101196.63;;;8.99;75.23
26443;BME280;5563;52.296;6.806;2023-04-15T09:41:15;101204.38;;;9.02;75.16
26443;BME280;5563;52.296;6.806;2023-04-15T09:43:51;101204.09;;;9.06;74.72
26443;BME280;5563;52.296;6.806;2023-04-15T09:46:43;101209.59;;;9.16;74.98
26443;BME280;5563;52.296;6.806;2023-04-15T09:49:24;101205.56;;;9.23;74.74
26443;BME280;5563;52.296;6.806;2023-04-15T09:51:57;101212.91;;;9.32;74.27
26443;BME280;5563;52.296;6.806;2023-04-15T09:54:37;101219.84;;;9.34;74.25
26443;BME280;5563;52.296;6.806;2023-04-15T09:57:07;101222.78;;;9.30;74.81
26443;BME280;5563;52.296;6.806;2023-04-15T09:59:41;101218.03;;;9.22;74.62
26443;BME280;5563;52.296;6.806;2023-04-15T10:02:08;101229.19;;;9.27;74.44
26443;BME280;5563;52.296;6.806;2023-04-15T10:04:44;101224.00;;;9.26;74.05
26443;BME280;5563;52.296;6.806;2023-04-15T10:07:11;101218.97;;;9.34;74.57
26443;BME280;5563;52.296;6.806;2023-04-15T10:09:44;101226.84;;;9.48;74.25
26443;BME280;5563;52.296;6.806;2023-04-15T10:12:13;101228.22;;;9.66;73.70
26443;BME280;5563;52.296;6.806;2023-04-15T10:14:52;101233.19;;;9.83;73.73
26443;BME280;5563;52.296;6.806;2023-04-15T10:17:21;101224.53;;;9.92;73.03
26443;BME280;5563;52.296;6.806;2023-04-15T10:20:00;101229.63;;;9.95;72.23
26443;BME280;5563;52.296;6.806;2023-04-15T10:22:35;101229.13;;;9.90;72.16
26443;BME280;5563;52.296;6.806;2023-04-15T10:25:09;101229.34;;;9.87;71.49
26443;BME280;5563;52.296;6.806;2023-04-15T10:27:38;101232.44;;;9.81;71.80
26443;BME280;5563;52.296;6.806;2023-04-15T10:30:15;101242.25;;;9.80;72.20
26443;BME280;5563;52.296;6.806;2023-04-15T10:32:49;101240.66;;;9.78;71.48
26443;BME280;5563;52.296;6.806;2023-04-15T10:35:16;101245.09;;;9.77;71.06
26443;BME280;5563;52.296;6.806;2023-04-15T10:37:50;101240.75;;;9.76;70.51
26443;BME280;5563;52.296;6.806;2023-04-15T10:40:30;101246.84;;;9.78;71.53
26443;BME280;5563;52.296;6.806;2023-04-15T10:43:24;101243.09;;;9.81;71.30
26443;BME280;5563;52.296;6.806;2023-04-15T10:46:05;101245.03;;;9.79;71.51
26443;BME280;5563;52.296;6.806;2023-04-15T10:48:38;101252.03;;;9.80;70.94
26443;BME280;5563;52.296;6.806;2023-04-15T10:51:13;101247.78;;;9.77;71.53
26443;BME280;5563;52.296;6.806;2023-04-15T10:53:46;101247.78;;;9.77;71.88
26443;BME280;5563;52.296;6.806;2023-04-15T10:56:16;101248.00;;;9.74;71.32
26443;BME280;5563;52.296;6.806;2023-04-15T10:58:49;101239.72;;;9.66;72.13
26443;BME280;5563;52.296;6.806;2023-04-15T11:01:19;101254.19;;;9.75;72.01
26443;BME280;5563;52.296;6.806;2023-04-15T11:03:55;101254.59;;;9.81;72.12
26443;BME280;5563;52.296;6.806;2023-04-15T11:06:42;101246.69;;;9.93;71.90
26443;BME280;5563;52.296;6.806;2023-04-15T11:09:33;101254.88;;;10.02;71.93
26443;BME280;5563;52.296;6.806;2023-04-15T11:12:07;101258.72;;;10.11;71.58
26443;BME280;5563;52.296;6.806;2023-04-15T11:14:39;101255.41;;;10.07;70.54
26443;BME280;5563;52.296;6.806;2023-04-15T11:17:12;101256.81;;;10.00;71.05
26443;BME280;5563;52.296;6.806;2023-04-15T11:19:39;101258.00;;;9.83;71.09
26443;BME280;5563;52.296;6.806;2023-04-15T11:22:12;101259.63;;;9.73;71.49
26443;BME280;5563;52.296;6.806;2023-04-15T11:24:48;101267.81;;;9.70;71.70
26443;BME280;5563;52.296;6.806;2023-04-15T11:27:22;101268.44;;;9.61;71.87
26443;BME280;5563;52.296;6.806;2023-04-15T11:29:49;101274.53;;;9.51;72.32
26443;BME280;5563;52.296;6.806;2023-04-15T11:32:22;101273.88;;;9.47;72.73
26443;BME280;5563;52.296;6.806;2023-04-15T11:34:50;101274.84;;;9.46;73.08
26443;BME280;5563;52.296;6.806;2023-04-15T11:37:28;101282.44;;;9.52;72.27
26443;BME280;5563;52.296;6.806;2023-04-15T11:39:55;101277.94;;;9.53;72.57
26443;BME280;5563;52.296;6.806;2023-04-15T11:42:28;101280.94;;;9.61;72.60
26443;BME280;5563;52.296;6.806;2023-04-15T11:45:15;101283.16;;;9.67;73.29
26443;BME280;5563;52.296;6.806;2023-04-15T11:47:48;101284.41;;;9.74;72.60
26443;BME280;5563;52.296;6.806;2023-04-15T11:52:57;101286.56;;;9.81;71.86
26443;BME280;5563;52.296;6.806;2023-04-15T11:55:24;101288.44;;;9.92;72.34
26443;BME280;5563;52.296;6.806;2023-04-15T12:00:59;101291.44;;;10.00;70.96
26443;BME280;5563;52.296;6.806;2023-04-15T12:06:23;101281.97;;;9.83;71.62
26443;BME280;5563;52.296;6.806;2023-04-15T12:16:36;101310.75;;;9.53;72.90
26443;BME280;5563;52.296;6.806;2023-04-15T12:19:34;101315.63;;;9.47;73.31
26443;BME280;5563;52.296;6.806;2023-04-15T12:22:08;101316.69;;;9.44;73.78
26443;BME280;5563;52.296;6.806;2023-04-15T12:24:43;101324.03;;;9.53;74.03
26443;BME280;5563;52.296;6.806;2023-04-15T12:27:24;101329.16;;;9.56;74.11
26443;BME280;5563;52.296;6.806;2023-04-15T12:30:04;101330.97;;;9.56;73.97
26443;BME280;5563;52.296;6.806;2023-04-15T12:32:34;101325.09;;;9.51;73.98
26443;BME280;5563;52.296;6.806;2023-04-15T12:35:08;101332.25;;;9.50;73.94
26443;BME280;5563;52.296;6.806;2023-04-15T12:37:35;101345.34;;;9.53;74.76
26443;BME280;5563;52.296;6.806;2023-04-15T12:40:09;101347.91;;;9.55;74.13
26443;BME280;5563;52.296;6.806;2023-04-15T12:42:36;101350.66;;;9.53;74.39
26443;BME280;5563;52.296;6.806;2023-04-15T12:45:04;101356.75;;;9.55;74.13
26443;BME280;5563;52.296;6.806;2023-04-15T12:47:37;101360.25;;;9.56;73.93
26443;BME280;5563;52.296;6.806;2023-04-15T12:50:10;101357.38;;;9.59;74.13
26443;BME280;5563;52.296;6.806;2023-04-15T12:52:37;101351.63;;;9.65;73.65
26443;BME280;5563;52.296;6.806;2023-04-15T12:55:10;101360.69;;;9.75;73.48
26443;BME280;5563;52.296;6.806;2023-04-15T12:57:37;101366.97;;;9.74;72.88
26443;BME280;5563;52.296;6.806;2023-04-15T13:00:12;101359.72;;;9.76;72.97
26443;BME280;5563;52.296;6.806;2023-04-15T13:02:45;101357.69;;;9.67;73.05
26443;BME280;5563;52.296;6.806;2023-04-15T13:05:12;101367.59;;;9.65;73.33
26443;BME280;5563;52.296;6.806;2023-04-15T13:07:47;101363.25;;;9.64;73.67
26443;BME280;5563;52.296;6.806;2023-04-15T13:10:14;101366.66;;;9.66;73.99
26443;BME280;5563;52.296;6.806;2023-04-15T13:12:48;101377.09;;;9.69;73.66
26443;BME280;5563;52.296;6.806;2023-04-15T13:15:16;101378.69;;;9.71;73.73
26443;BME280;5563;52.296;6.806;2023-04-15T13:17:46;101376.69;;;9.75;73.96
26443;BME280;5563;52.296;6.806;2023-04-15T13:20:19;101378.38;;;9.76;73.73
26443;BME280;5563;52.296;6.806;2023-04-15T13:22:46;101374.94;;;9.74;74.24
26443;BME280;5563;52.296;6.806;2023-04-15T13:25:20;101381.25;;;9.73;74.68
26443;BME280;5563;52.296;6.806;2023-04-15T13:27:48;101391.38;;;9.68;74.92
26443;BME280;5563;52.296;6.806;2023-04-15T13:30:21;101387.84;;;9.67;75.28
26443;BME280;5563;52.296;6.806;2023-04-15T13:32:48;101375.69;;;9.63;75.92
26443;BME280;5563;52.296;6.806;2023-04-15T13:35:22;101391.88;;;9.60;75.55
26443;BME280;5563;52.296;6.806;2023-04-15T13:37:49;101395.59;;;9.58;75.42
26443;BME280;5563;52.296;6.806;2023-04-15T13:40:22;101386.66;;;9.46;75.27
26443;BME280;5563;52.296;6.806;2023-04-15T13:42:50;101409.84;;;9.44;75.88
26443;BME280;5563;52.296;6.806;2023-04-15T13:45:37;101404.91;;;9.38;76.08
26443;BME280;5563;52.296;6.806;2023-04-15T13:48:04;101407.91;;;9.34;76.22
26443;BME280;5563;52.296;6.806;2023-04-15T13:50:38;101412.69;;;9.29;76.70